createdAt,value
2023-04-11T00:01:08.041Z,10.37
2023-04-11T00:03:36.674Z,10.23
2023-04-11T00:06:04.983Z,9.23
2023-04-11T00:08:31.555Z,11.53
2023-04-11T00:10:58.160Z,10.37
2023-04-11T00:13:26.568Z,10.60
2023-04-11T00:15:55.705Z,10.67
2023-04-11T00:18:22.916Z,9.67
2023-04-11T00:20:49.456Z,10.93
2023-04-11T00:23:16.184Z,9.93
2023-04-11T00:25:42.761Z,12.43
2023-04-11T00:28:09.605Z,11.07
2023-04-11T00:30:36.212Z,11.00
2023-04-11T00:33:03.996Z,10.07
2023-04-11T00:35:34.586Z,10.47
2023-04-11T00:38:02.265Z,10.10
2023-04-11T00:40:29.013Z,12.27
2023-04-11T00:42:58.729Z,11.27
2023-04-11T00:45:25.570Z,10.73
2023-04-11T00:47:52.241Z,10.90
2023-04-11T00:50:19.072Z,12.00
2023-04-11T00:52:47.078Z,11.13
2023-04-11T00:55:14.079Z,10.67
2023-04-11T00:57:42.350Z,10.07
2023-04-11T01:00:11.997Z,11.97
2023-04-11T01:02:43.233Z,11.47
2023-04-11T01:05:11.023Z,12.30
2023-04-11T01:07:38.035Z,11.60
2023-04-11T01:10:05.900Z,11.50
2023-04-11T01:12:33.154Z,11.33
2023-04-11T01:14:59.824Z,11.00
2023-04-11T01:17:27.198Z,11.40
2023-04-11T01:19:54.164Z,11.60
2023-04-11T01:22:23.115Z,10.87
2023-04-11T01:24:49.823Z,11.47
2023-04-11T01:27:16.328Z,11.73
2023-04-11T01:29:43.174Z,11.63
2023-04-11T01:32:10.374Z,11.50
2023-04-11T01:34:39.873Z,11.70
2023-04-11T01:37:06.566Z,11.73
2023-04-11T01:39:33.078Z,11.50
2023-04-11T01:42:00.993Z,11.73
2023-04-11T01:44:27.926Z,11.53
2023-04-11T01:46:55.185Z,11.70
2023-04-11T01:49:24.140Z,11.27
2023-04-11T01:51:51.102Z,11.77
2023-04-11T01:54:17.672Z,11.57
2023-04-11T01:56:44.304Z,11.77
2023-04-11T01:59:10.855Z,12.07
2023-04-11T02:01:37.828Z,12.10
2023-04-11T02:04:04.561Z,11.13
2023-04-11T02:06:32.123Z,12.20
2023-04-11T02:08:58.656Z,11.67
2023-04-11T02:11:25.325Z,12.10
2023-04-11T02:13:52.816Z,11.93
2023-04-11T02:16:20.819Z,11.30
2023-04-11T02:18:47.447Z,12.53
2023-04-11T02:21:14.007Z,12.67
2023-04-11T02:23:40.568Z,15.63
2023-04-11T02:26:07.112Z,12.67
2023-04-11T02:28:34.069Z,13.03
2023-04-11T02:31:00.894Z,12.63
2023-04-11T02:33:27.590Z,13.73
2023-04-11T02:35:54.123Z,12.87
2023-04-11T02:38:21.125Z,13.07
2023-04-11T02:40:47.934Z,14.60
2023-04-11T02:43:14.960Z,13.83
2023-04-11T02:45:41.687Z,12.70
2023-04-11T02:48:09.132Z,12.03
2023-04-11T02:50:41.529Z,12.13
2023-04-11T02:53:08.175Z,12.83
2023-04-11T02:55:37.606Z,11.50
2023-04-11T02:58:04.184Z,11.27
2023-04-11T03:00:31.354Z,11.43
2023-04-11T03:03:06.553Z,12.50
2023-04-11T03:05:38.865Z,10.43
2023-04-11T03:08:08.995Z,10.23
2023-04-11T03:10:37.360Z,11.33
2023-04-11T03:13:05.881Z,9.93
2023-04-11T03:15:32.615Z,10.87
2023-04-11T03:18:04.066Z,10.47
2023-04-11T03:20:30.723Z,9.83
2023-04-11T03:22:57.281Z,9.80
2023-04-11T03:25:24.502Z,9.73
2023-04-11T03:27:52.253Z,9.07
2023-04-11T03:30:18.863Z,9.30
2023-04-11T03:32:47.564Z,9.20
2023-04-11T03:35:14.912Z,9.37
2023-04-11T03:37:45.521Z,9.63
2023-04-11T03:40:12.417Z,9.00
2023-04-11T03:42:43.359Z,9.93
2023-04-11T03:45:15.139Z,8.70
2023-04-11T03:47:42.159Z,9.60
2023-04-11T03:50:10.711Z,9.57
2023-04-11T03:52:43.026Z,9.50
2023-04-11T03:55:13.912Z,11.50
2023-04-11T03:57:40.464Z,15.53
2023-04-11T04:00:07.850Z,14.40
2023-04-11T04:02:42.049Z,11.40
2023-04-11T04:05:12.722Z,9.87
2023-04-11T04:07:40.448Z,11.43
2023-04-11T04:10:14.160Z,10.87
2023-04-11T04:12:43.661Z,10.50
2023-04-11T04:15:19.676Z,9.30
2023-04-11T04:17:48.721Z,10.20
2023-04-11T04:20:47.819Z,9.30
2023-04-11T04:23:18.329Z,8.50
2023-04-11T04:26:02.760Z,8.60
2023-04-11T04:28:33.246Z,8.47
2023-04-11T04:31:04.080Z,8.87
2023-04-11T04:33:38.025Z,7.83
2023-04-11T04:36:12.431Z,8.03
2023-04-11T04:38:42.272Z,8.70
2023-04-11T04:41:15.571Z,8.60
2023-04-11T04:43:48.832Z,8.90
2023-04-11T04:46:23.115Z,8.57
2023-04-11T04:48:51.328Z,8.60
2023-04-11T04:51:17.901Z,8.17
2023-04-11T04:53:44.513Z,9.03
2023-04-11T04:56:11.830Z,8.00
2023-04-11T04:58:41.291Z,8.93
2023-04-11T05:01:11.955Z,7.93
2023-04-11T05:03:39.138Z,8.33
2023-04-11T05:06:11.080Z,9.07
2023-04-11T05:08:38.840Z,8.27
2023-04-11T05:11:08.739Z,8.53
2023-04-11T05:13:36.350Z,8.33
2023-04-11T05:16:04.478Z,8.13
2023-04-11T05:18:31.378Z,8.03
2023-04-11T05:20:58.275Z,7.70
2023-04-11T05:23:30.870Z,7.77
2023-04-11T05:26:01.223Z,7.93
2023-04-11T05:28:28.893Z,7.70
2023-04-11T05:30:55.545Z,7.43
2023-04-11T05:33:24.754Z,7.57
2023-04-11T05:35:51.964Z,8.07
2023-04-11T05:38:19.118Z,7.97
2023-04-11T05:40:45.844Z,8.00
2023-04-11T05:43:14.938Z,7.90
2023-04-11T05:45:41.657Z,8.17
2023-04-11T05:48:08.649Z,7.93
2023-04-11T05:50:35.581Z,8.27
2023-04-11T05:53:03.339Z,9.00
2023-04-11T05:55:29.927Z,8.57
2023-04-11T05:57:56.422Z,8.93
2023-04-11T06:00:24.238Z,8.50
2023-04-11T06:02:50.967Z,10.17
2023-04-11T06:05:18.051Z,9.17
2023-04-11T06:07:45.345Z,9.30
2023-04-11T06:10:11.899Z,10.10
2023-04-11T06:12:38.496Z,10.63
2023-04-11T06:15:05.962Z,10.37
2023-04-11T06:17:32.484Z,12.55
2023-04-11T06:19:59.045Z,12.03
2023-04-11T06:22:25.620Z,20.13
2023-04-11T06:24:52.216Z,16.93
2023-04-11T06:27:18.725Z,14.57
2023-04-11T06:29:45.249Z,12.70
2023-04-11T06:32:12.353Z,11.87
2023-04-11T06:34:39.069Z,11.77
2023-04-11T06:37:08.638Z,12.83
2023-04-11T06:39:35.251Z,12.57
2023-04-11T06:42:02.310Z,10.67
2023-04-11T06:44:31.774Z,11.73
2023-04-11T06:46:59.382Z,11.50
2023-04-11T06:49:26.709Z,12.80
2023-04-11T06:51:54.658Z,12.27
2023-04-11T06:54:21.794Z,11.47
2023-04-11T06:56:50.705Z,13.63
2023-04-11T06:59:19.665Z,14.30
2023-04-11T07:01:46.688Z,11.57
2023-04-11T07:04:13.330Z,12.77
2023-04-11T07:06:40.167Z,12.77
2023-04-11T07:09:07.048Z,14.00
2023-04-11T07:11:33.734Z,13.13
2023-04-11T07:14:00.791Z,12.77
2023-04-11T07:16:27.490Z,13.67
2023-04-11T07:18:54.689Z,12.83
2023-04-11T07:21:21.426Z,12.87
2023-04-11T07:23:48.163Z,12.90
2023-04-11T07:26:17.065Z,12.43
2023-04-11T07:28:45.101Z,13.07
2023-04-11T07:31:12.653Z,13.67
2023-04-11T07:33:39.635Z,13.37
2023-04-11T07:36:06.757Z,15.07
2023-04-11T07:38:34.256Z,12.87
2023-04-11T07:41:01.550Z,13.27
2023-04-11T07:43:28.852Z,13.37
2023-04-11T07:45:56.871Z,16.10
2023-04-11T07:48:26.113Z,15.17
2023-04-11T07:50:53.165Z,15.07
2023-04-11T07:53:20.063Z,13.60
2023-04-11T07:55:46.644Z,13.13
2023-04-11T07:58:13.223Z,13.33
2023-04-11T08:00:39.781Z,12.83
2023-04-11T08:03:07.730Z,12.63
2023-04-11T08:05:35.775Z,14.00
2023-04-11T08:08:02.718Z,12.77
2023-04-11T08:10:29.288Z,14.03
2023-04-11T08:12:56.409Z,12.57
2023-04-11T08:15:22.975Z,13.30
2023-04-11T08:17:56.184Z,13.27
2023-04-11T08:20:23.770Z,12.77
2023-04-11T08:22:50.301Z,12.80
2023-04-11T08:25:19.887Z,12.60
2023-04-11T08:27:46.504Z,11.90
2023-04-11T08:30:13.577Z,12.53
2023-04-11T08:32:42.346Z,12.77
2023-04-11T08:35:09.332Z,14.27
2023-04-11T08:37:35.911Z,13.33
2023-04-11T08:40:06.740Z,12.00
2023-04-11T08:42:34.243Z,14.20
2023-04-11T08:45:02.438Z,12.17
2023-04-11T08:47:29.027Z,12.03
2023-04-11T08:49:56.581Z,11.73
2023-04-11T08:52:24.065Z,12.00
2023-04-11T08:54:52.177Z,11.77
2023-04-11T08:57:26.098Z,11.00
2023-04-11T08:59:53.606Z,11.73
2023-04-11T09:02:20.396Z,11.40
2023-04-11T09:04:47.679Z,11.53
2023-04-11T09:07:16.344Z,11.57
2023-04-11T09:09:43.529Z,12.67
2023-04-11T09:12:10.637Z,12.53
2023-04-11T09:14:37.481Z,10.70
2023-04-11T09:17:06.144Z,11.87
2023-04-11T09:19:33.781Z,11.57
2023-04-11T09:22:01.716Z,11.07
2023-04-11T09:24:29.722Z,11.77
2023-04-11T09:27:09.982Z,12.77
2023-04-11T09:29:40.866Z,11.57
2023-04-11T09:32:07.473Z,10.87
2023-04-11T09:34:37.482Z,12.10
2023-04-11T09:37:04.102Z,12.23
2023-04-11T09:39:32.514Z,11.43
2023-04-11T09:41:59.175Z,11.83
2023-04-11T09:44:35.423Z,11.27
2023-04-11T09:47:02.129Z,11.13
2023-04-11T09:49:29.569Z,10.23
2023-04-11T09:51:57.592Z,10.50
2023-04-11T09:54:25.402Z,10.87
2023-04-11T09:56:51.903Z,11.20
2023-04-11T09:59:20.160Z,14.27
2023-04-11T10:01:47.293Z,11.50
2023-04-11T10:04:14.463Z,9.80
2023-04-11T10:06:46.955Z,13.47
2023-04-11T10:09:13.841Z,13.33
2023-04-11T10:11:41.318Z,14.13
2023-04-11T10:14:08.039Z,9.43
2023-04-11T10:16:34.778Z,5.50
2023-04-11T10:19:01.305Z,3.80
2023-04-11T10:21:30.828Z,5.07
2023-04-11T10:24:15.637Z,5.70
2023-04-11T10:26:46.528Z,3.73
2023-04-11T10:29:28.052Z,3.47
2023-04-11T10:32:12.775Z,20.87
2023-04-11T10:34:41.865Z,16.60
2023-04-11T10:37:09.378Z,22.37
2023-04-11T10:39:54.013Z,3.17
2023-04-11T10:42:26.556Z,2.43
2023-04-11T10:45:11.963Z,3.83
2023-04-11T10:47:38.585Z,3.33
2023-04-11T10:50:25.209Z,5.87
2023-04-11T10:52:52.358Z,3.53
2023-04-11T10:55:19.704Z,2.87
2023-04-11T10:58:08.344Z,15.93
2023-04-11T11:01:01.329Z,4.87
2023-04-11T11:03:34.150Z,4.57
2023-04-11T11:06:02.262Z,4.20
2023-04-11T11:08:32.161Z,4.93
2023-04-11T11:11:02.257Z,4.83
2023-04-11T11:13:51.681Z,4.43
2023-04-11T11:16:22.410Z,4.80
2023-04-11T11:18:53.075Z,4.90
2023-04-11T11:21:27.287Z,4.80
2023-04-11T11:23:54.976Z,5.57
2023-04-11T11:26:22.003Z,2.40
2023-04-11T11:28:48.881Z,3.33
2023-04-11T11:31:15.582Z,3.13
2023-04-11T11:33:42.234Z,1.90
2023-04-11T11:36:09.278Z,2.00
2023-04-11T11:38:35.993Z,3.07
2023-04-11T11:41:02.914Z,3.27
2023-04-11T11:43:29.548Z,2.63
2023-04-11T11:46:09.437Z,3.07
2023-04-11T11:48:36.254Z,1.90
2023-04-11T11:51:02.785Z,2.10
2023-04-11T11:53:29.310Z,1.93
2023-04-11T11:55:56.865Z,1.83
2023-04-11T11:58:23.518Z,2.03
2023-04-11T12:00:50.578Z,2.37
2023-04-11T12:03:18.397Z,3.37
2023-04-11T12:05:45.133Z,2.40
2023-04-11T12:08:12.072Z,4.97
2023-04-11T12:10:39.793Z,2.33
2023-04-11T12:13:17.841Z,3.30
2023-04-11T12:15:46.431Z,2.20
2023-04-11T12:18:13.173Z,1.50
2023-04-11T12:20:39.853Z,1.43
2023-04-11T12:23:06.446Z,1.17
2023-04-11T12:25:33.104Z,1.00
2023-04-11T12:27:59.727Z,1.20
2023-04-11T12:30:27.617Z,1.33
2023-04-11T12:32:55.508Z,1.67
2023-04-11T12:35:22.259Z,1.20
2023-04-11T12:37:48.814Z,1.40
2023-04-11T12:40:15.447Z,1.30
2023-04-11T12:42:53.343Z,1.23
2023-04-11T12:45:22.846Z,1.10
2023-04-11T12:47:49.423Z,0.87
2023-04-11T12:50:15.983Z,1.33
2023-04-11T12:52:42.834Z,1.00
2023-04-11T12:55:09.823Z,1.43
2023-04-11T12:57:36.666Z,1.20
2023-04-11T13:00:13.042Z,1.37
2023-04-11T13:02:43.803Z,2.00
2023-04-11T13:05:11.531Z,1.17
2023-04-11T13:07:38.273Z,2.67
2023-04-11T13:10:07.213Z,3.80
2023-04-11T13:12:39.594Z,1.40
2023-04-11T13:15:07.370Z,3.73
2023-04-11T13:17:33.893Z,8.80
2023-04-11T13:20:00.465Z,2.80
2023-04-11T13:22:27.189Z,4.40
2023-04-11T13:24:53.711Z,5.87
2023-04-11T13:27:20.299Z,3.00
2023-04-11T13:29:46.780Z,2.37
2023-04-11T13:32:13.368Z,1.57
2023-04-11T13:34:40.756Z,2.43
2023-04-11T13:37:07.334Z,2.13
2023-04-11T13:39:33.971Z,1.67
2023-04-11T13:42:00.597Z,2.67
2023-04-11T13:44:27.326Z,1.30
2023-04-11T13:46:54.409Z,3.50
2023-04-11T13:49:21.123Z,4.07
2023-04-11T13:51:47.691Z,3.67
2023-04-11T13:54:14.214Z,2.10
2023-04-11T13:56:41.177Z,4.80
2023-04-11T13:59:07.771Z,6.33
2023-04-11T14:01:34.685Z,8.43
2023-04-11T14:04:01.557Z,5.37
2023-04-11T14:06:28.453Z,3.53
2023-04-11T14:08:55.020Z,3.53
2023-04-11T14:11:21.680Z,5.33
2023-04-11T14:13:48.478Z,3.40
2023-04-11T14:16:15.108Z,3.63
2023-04-11T14:18:41.798Z,2.10
2023-04-11T14:21:08.499Z,3.07
2023-04-11T14:23:35.298Z,1.83
2023-04-11T14:26:01.808Z,1.70
2023-04-11T14:28:28.473Z,2.27
2023-04-11T14:30:55.958Z,2.03
2023-04-11T14:33:23.137Z,1.20
2023-04-11T14:35:50.450Z,0.73
2023-04-11T14:38:16.971Z,2.10
2023-04-11T14:40:44.313Z,3.70
2023-04-11T14:43:11.448Z,7.03
2023-04-11T14:45:38.153Z,5.77
2023-04-11T14:48:04.995Z,4.60
2023-04-11T14:50:32.323Z,2.30
2023-04-11T14:52:58.852Z,1.70
2023-04-11T14:55:25.519Z,1.80
2023-04-11T14:57:53.117Z,1.87
2023-04-11T15:00:19.872Z,2.30
2023-04-11T15:02:47.267Z,1.20
2023-04-11T15:05:15.181Z,2.33
2023-04-11T15:07:41.787Z,2.30
2023-04-11T15:10:08.976Z,6.17
2023-04-11T15:12:35.612Z,7.70
2023-04-11T15:15:02.187Z,5.23
2023-04-11T15:17:28.762Z,5.30
2023-04-11T15:19:55.321Z,6.87
2023-04-11T15:22:22.067Z,4.93
2023-04-11T15:24:48.588Z,2.90
2023-04-11T15:27:15.157Z,2.20
2023-04-11T15:29:41.654Z,3.37
2023-04-11T15:32:08.212Z,6.07
2023-04-11T15:34:34.760Z,3.10
2023-04-11T15:37:01.264Z,5.80
2023-04-11T15:39:27.928Z,5.57
2023-04-11T15:41:54.475Z,14.73
2023-04-11T15:44:21.077Z,2.47
2023-04-11T15:46:49.423Z,3.23
2023-04-11T15:49:16.718Z,1.30
2023-04-11T15:51:44.987Z,2.40
2023-04-11T15:54:11.473Z,1.23
2023-04-11T15:56:38.094Z,2.50
2023-04-11T15:59:04.687Z,2.57
2023-04-11T16:01:31.603Z,1.40
2023-04-11T16:03:58.992Z,1.50
2023-04-11T16:06:25.953Z,1.73
2023-04-11T16:08:52.494Z,1.73
2023-04-11T16:11:19.261Z,2.53
2023-04-11T16:13:45.853Z,3.20
2023-04-11T16:16:12.391Z,14.27
2023-04-11T16:18:39.068Z,8.00
2023-04-11T16:21:11.659Z,2.60
2023-04-11T16:23:38.166Z,2.33
2023-04-11T16:26:05.001Z,2.17
2023-04-11T16:28:31.558Z,2.17
2023-04-11T16:30:58.490Z,1.90
2023-04-11T16:33:25.041Z,5.40
2023-04-11T16:35:51.598Z,4.20
2023-04-11T16:38:18.378Z,10.00
2023-04-11T16:40:44.899Z,9.63
2023-04-11T16:43:11.818Z,13.63
2023-04-11T16:45:38.732Z,5.60
2023-04-11T16:48:06.594Z,9.33
2023-04-11T16:50:33.370Z,3.23
2023-04-11T16:52:59.924Z,7.13
2023-04-11T16:55:26.424Z,3.10
2023-04-11T16:57:52.966Z,2.13
2023-04-11T17:00:20.568Z,1.73
2023-04-11T17:02:47.190Z,1.70
2023-04-11T17:05:13.920Z,2.57
2023-04-11T17:07:40.719Z,1.80
2023-04-11T17:10:07.678Z,1.53
2023-04-11T17:12:34.206Z,2.50
2023-04-11T17:15:00.783Z,1.70
2023-04-11T17:17:27.444Z,3.03
2023-04-11T17:19:54.175Z,2.43
2023-04-11T17:22:20.714Z,1.50
2023-04-11T17:24:47.284Z,1.50
2023-04-11T17:27:14.071Z,1.30
2023-04-11T17:29:40.823Z,2.57
2023-04-11T17:32:07.340Z,2.90
2023-04-11T17:34:33.903Z,1.70
2023-04-11T17:37:00.395Z,2.13
2023-04-11T17:39:26.952Z,2.63
2023-04-11T17:41:53.397Z,5.10
2023-04-11T17:44:20.610Z,3.67
2023-04-11T17:46:47.161Z,2.30
2023-04-11T17:49:13.716Z,2.57
2023-04-11T17:51:48.882Z,5.17
2023-04-11T17:54:19.075Z,4.23
2023-04-11T17:56:45.969Z,3.27
2023-04-11T17:59:13.649Z,3.20
2023-04-11T18:01:40.507Z,2.90
2023-04-11T18:04:09.579Z,5.80
2023-04-11T18:06:36.272Z,2.30
2023-04-11T18:09:03.858Z,2.00
2023-04-11T18:11:30.373Z,1.50
2023-04-11T18:13:57.241Z,2.23
2023-04-11T18:16:24.137Z,1.60
2023-04-11T18:18:50.713Z,1.80
2023-04-11T18:21:17.566Z,2.23
2023-04-11T18:23:44.146Z,2.07
2023-04-11T18:26:10.810Z,2.10
2023-04-11T18:28:37.356Z,3.37
2023-04-11T18:31:04.436Z,4.50
2023-04-11T18:33:31.920Z,3.27
2023-04-11T18:35:58.648Z,2.83
2023-04-11T18:38:25.633Z,3.07
2023-04-11T18:40:55.847Z,2.10
2023-04-11T18:43:23.874Z,1.63
2023-04-11T18:45:50.652Z,3.17
2023-04-11T18:48:17.191Z,2.27
2023-04-11T18:50:47.017Z,1.47
2023-04-11T18:53:14.177Z,2.40
2023-04-11T18:55:41.354Z,2.20
2023-04-11T18:58:09.504Z,1.10
2023-04-11T19:00:36.768Z,4.23
2023-04-11T19:03:05.057Z,2.30
2023-04-11T19:05:32.225Z,3.10
2023-04-11T19:07:59.414Z,2.50
2023-04-11T19:10:26.111Z,5.03
2023-04-11T19:12:52.655Z,4.10
2023-04-11T19:15:19.478Z,3.80
2023-04-11T19:17:45.998Z,1.97
2023-04-11T19:20:13.255Z,2.17
2023-04-11T19:22:41.063Z,2.20
2023-04-11T19:25:11.332Z,3.53
2023-04-11T19:27:40.391Z,3.63
2023-04-11T19:30:08.933Z,2.83
2023-04-11T19:32:46.052Z,2.43
2023-04-11T19:35:13.045Z,1.90
2023-04-11T19:37:39.942Z,2.37
2023-04-11T19:40:16.598Z,3.40
2023-04-11T19:42:44.179Z,4.37
2023-04-11T19:45:11.491Z,2.37
2023-04-11T19:47:39.814Z,2.47
2023-04-11T19:50:07.742Z,5.80
2023-04-11T19:52:34.325Z,2.07
2023-04-11T19:55:00.901Z,1.70
2023-04-11T19:57:27.800Z,3.13
2023-04-11T19:59:54.414Z,2.07
2023-04-11T20:02:21.325Z,4.37
2023-04-11T20:04:48.147Z,2.30
2023-04-11T20:07:14.905Z,2.13
2023-04-11T20:09:41.531Z,2.30
2023-04-11T20:12:08.247Z,2.40
2023-04-11T20:14:34.985Z,1.70
2023-04-11T20:17:01.955Z,1.70
2023-04-11T20:19:29.687Z,2.70
2023-04-11T20:21:56.455Z,1.97
2023-04-11T20:24:23.858Z,3.17
2023-04-11T20:26:51.033Z,1.70
2023-04-11T20:29:18.198Z,2.20
2023-04-11T20:31:44.959Z,1.80
2023-04-11T20:34:11.678Z,2.63
2023-04-11T20:36:38.579Z,2.57
2023-04-11T20:39:05.315Z,2.93
2023-04-11T20:41:32.359Z,1.93
2023-04-11T20:43:59.523Z,2.83
2023-04-11T20:46:29.699Z,3.93
2023-04-11T20:48:56.539Z,2.13
2023-04-11T20:51:23.224Z,1.40
2023-04-11T20:53:49.747Z,4.73
2023-04-11T20:56:16.277Z,2.10
2023-04-11T20:58:42.825Z,1.30
2023-04-11T21:01:09.375Z,1.93
2023-04-11T21:03:39.041Z,1.40
2023-04-11T21:06:07.456Z,1.17
2023-04-11T21:08:35.401Z,1.93
2023-04-11T21:11:02.078Z,6.10
2023-04-11T21:13:28.685Z,1.20
2023-04-11T21:15:55.360Z,3.40
2023-04-11T21:18:21.879Z,2.53
2023-04-11T21:20:48.405Z,1.57
2023-04-11T21:23:14.888Z,2.67
2023-04-11T21:25:41.493Z,1.43
2023-04-11T21:28:08.005Z,4.00
2023-04-11T21:30:34.639Z,4.07
2023-04-11T21:33:01.201Z,2.07
2023-04-11T21:35:27.907Z,1.70
2023-04-11T21:37:54.510Z,2.20
2023-04-11T21:40:21.357Z,3.00
2023-04-11T21:42:47.921Z,2.53
2023-04-11T21:45:14.546Z,2.17
2023-04-11T21:47:41.213Z,2.17
2023-04-11T21:50:08.249Z,3.63
2023-04-11T21:52:34.810Z,3.10
2023-04-11T21:55:01.381Z,3.03
2023-04-11T21:57:28.136Z,2.40
2023-04-11T21:59:54.745Z,2.33
2023-04-11T22:02:21.553Z,2.00
2023-04-11T22:05:04.775Z,1.57
2023-04-11T22:07:52.966Z,1.83
2023-04-11T22:10:22.904Z,3.40
2023-04-11T22:12:51.753Z,3.03
2023-04-11T22:15:18.551Z,1.70
2023-04-11T22:17:46.231Z,2.53
2023-04-11T22:20:13.220Z,3.23
2023-04-11T22:22:39.770Z,3.33
2023-04-11T22:25:07.501Z,1.57
2023-04-11T22:27:34.355Z,1.37
2023-04-11T22:30:02.406Z,1.60
2023-04-11T22:32:30.258Z,1.37
2023-04-11T22:34:56.890Z,1.60
2023-04-11T22:37:23.580Z,1.73
2023-04-11T22:39:50.075Z,1.50
2023-04-11T22:42:16.882Z,2.23
2023-04-11T22:44:43.477Z,1.60
2023-04-11T22:47:13.443Z,2.40
2023-04-11T22:49:42.808Z,2.17
2023-04-11T22:52:10.709Z,2.93
2023-04-11T22:54:38.530Z,2.80
2023-04-11T22:57:05.142Z,3.87
2023-04-11T22:59:31.710Z,2.87
2023-04-11T23:01:58.330Z,3.73
2023-04-11T23:04:24.911Z,2.80
2023-04-11T23:06:51.465Z,2.93
2023-04-11T23:09:18.190Z,4.60
2023-04-11T23:11:45.351Z,2.70
2023-04-11T23:14:12.239Z,1.80
2023-04-11T23:16:38.807Z,2.20
2023-04-11T23:19:05.405Z,4.00
2023-04-11T23:21:32.066Z,1.60
2023-04-11T23:23:59.013Z,2.00
2023-04-11T23:26:25.672Z,1.93
2023-04-11T23:28:52.990Z,2.50
2023-04-11T23:31:19.598Z,1.60
2023-04-11T23:33:46.418Z,3.00
2023-04-11T23:36:13.712Z,2.03
2023-04-11T23:38:40.251Z,4.00
2023-04-11T23:41:07.228Z,4.63
2023-04-11T23:43:33.793Z,2.17
2023-04-11T23:46:00.786Z,1.87
2023-04-11T23:48:27.346Z,2.43
2023-04-11T23:50:53.888Z,2.97
2023-04-11T23:53:20.752Z,2.90
2023-04-11T23:55:47.341Z,4.73
2023-04-11T23:58:13.854Z,4.80
